createdAt,value
2023-11-23T00:01:34.806Z,7.15
2023-11-23T00:04:02.536Z,6.50
2023-11-23T00:06:30.122Z,7.10
2023-11-23T00:08:57.772Z,8.50
2023-11-23T00:11:26.685Z,7.45
2023-11-23T00:13:54.295Z,7.63
2023-11-23T00:16:21.868Z,7.35
2023-11-23T00:18:49.605Z,7.85
2023-11-23T00:21:17.331Z,9.02
2023-11-23T00:23:44.926Z,6.93
2023-11-23T00:26:14.670Z,8.20
2023-11-23T00:28:43.564Z,7.63
2023-11-23T00:31:11.138Z,8.82
2023-11-23T00:33:38.854Z,7.95
2023-11-23T00:36:07.330Z,8.43
2023-11-23T00:38:35.381Z,8.25
2023-11-23T00:41:03.006Z,7.63
2023-11-23T00:43:30.634Z,8.77
2023-11-23T00:45:59.555Z,8.73
2023-11-23T00:48:28.324Z,7.75
2023-11-23T00:50:56.307Z,9.57
2023-11-23T00:53:23.917Z,8.93
2023-11-23T00:55:51.537Z,9.13
2023-11-23T00:58:19.055Z,9.13
2023-11-23T01:00:46.704Z,9.57
2023-11-23T01:03:15.746Z,8.45
2023-11-23T01:05:45.095Z,8.57
2023-11-23T01:08:12.890Z,8.43
2023-11-23T01:10:40.437Z,7.20
2023-11-23T01:13:08.055Z,9.25
2023-11-23T01:15:35.609Z,8.80
2023-11-23T01:18:03.275Z,8.05
2023-11-23T01:20:32.266Z,8.25
2023-11-23T01:22:59.879Z,8.43
2023-11-23T01:25:27.454Z,9.32
2023-11-23T01:27:56.173Z,9.60
2023-11-23T01:30:23.767Z,9.88
2023-11-23T01:32:51.528Z,7.07
2023-11-23T01:35:21.809Z,7.70
2023-11-23T01:37:51.087Z,7.43
2023-11-23T01:40:18.705Z,8.48
2023-11-23T01:42:48.818Z,8.95
2023-11-23T01:45:16.755Z,8.10
2023-11-23T01:47:46.576Z,8.13
2023-11-23T01:50:15.413Z,8.52
2023-11-23T01:52:43.666Z,8.82
2023-11-23T01:55:13.621Z,7.75
2023-11-23T01:57:41.722Z,8.70
2023-11-23T02:00:10.826Z,7.72
2023-11-23T02:02:38.516Z,10.07
2023-11-23T02:05:06.736Z,8.80
2023-11-23T02:07:35.160Z,9.07
2023-11-23T02:10:02.816Z,8.50
2023-11-23T02:12:32.062Z,7.88
2023-11-23T02:15:01.216Z,8.98
2023-11-23T02:17:31.693Z,8.15
2023-11-23T02:19:59.398Z,8.95
2023-11-23T02:22:27.997Z,9.65
2023-11-23T02:24:56.932Z,9.10
2023-11-23T02:27:24.609Z,9.10
2023-11-23T02:29:52.193Z,10.32
2023-11-23T02:32:39.414Z,9.55
2023-11-23T02:35:07.901Z,8.77
2023-11-23T02:37:35.452Z,10.38
2023-11-23T02:40:05.156Z,9.73
2023-11-23T02:42:32.741Z,8.75
2023-11-23T02:45:00.739Z,7.55
2023-11-23T02:47:28.506Z,7.15
2023-11-23T02:49:56.137Z,7.80
2023-11-23T02:52:23.901Z,7.65
2023-11-23T02:54:51.591Z,8.02
2023-11-23T02:57:20.538Z,6.28
2023-11-23T02:59:48.142Z,6.82
2023-11-23T03:02:15.747Z,7.38
2023-11-23T03:04:43.384Z,8.15
2023-11-23T03:07:10.986Z,6.93
2023-11-23T03:09:38.703Z,8.57
2023-11-23T03:12:06.700Z,6.45
2023-11-23T03:14:35.864Z,7.90
2023-11-23T03:17:04.118Z,7.88
2023-11-23T03:19:31.773Z,7.65
2023-11-23T03:21:59.716Z,8.95
2023-11-23T03:24:27.403Z,8.18
2023-11-23T03:26:55.117Z,7.85
2023-11-23T03:29:23.625Z,9.52
2023-11-23T03:31:52.813Z,7.35
2023-11-23T03:34:20.435Z,6.60
2023-11-23T03:36:48.043Z,7.00
2023-11-23T03:39:15.846Z,9.32
2023-11-23T03:41:43.513Z,8.93
2023-11-23T03:44:11.117Z,9.15
2023-11-23T03:46:38.693Z,7.72
2023-11-23T03:49:07.684Z,7.75
2023-11-23T03:51:35.228Z,8.73
2023-11-23T03:54:03.966Z,9.18
2023-11-23T03:56:31.884Z,8.90
2023-11-23T03:58:59.540Z,8.23
2023-11-23T04:01:27.220Z,7.28
2023-11-23T04:03:54.928Z,9.23
2023-11-23T04:06:24.140Z,7.28
2023-11-23T04:08:51.775Z,7.55
2023-11-23T04:11:19.379Z,7.38
2023-11-23T04:13:47.724Z,8.15
2023-11-23T04:16:15.396Z,8.02
2023-11-23T04:18:45.476Z,8.65
2023-11-23T04:23:42.224Z,8.90
2023-11-23T04:26:09.846Z,7.18
2023-11-23T04:28:38.159Z,9.32
2023-11-23T04:31:06.275Z,9.43
2023-11-23T04:33:34.368Z,9.18
2023-11-23T04:36:02.477Z,10.10
2023-11-23T04:38:30.106Z,9.93
2023-11-23T04:40:58.984Z,10.02
2023-11-23T04:43:26.628Z,7.68
2023-11-23T04:45:54.214Z,9.23
2023-11-23T04:48:22.458Z,8.85
2023-11-23T04:50:51.133Z,7.97
2023-11-23T04:53:19.371Z,8.07
2023-11-23T04:55:47.572Z,8.90
2023-11-23T04:58:16.496Z,8.23
2023-11-23T05:00:44.083Z,8.27
2023-11-23T05:03:11.732Z,7.63
2023-11-23T05:05:39.356Z,8.23
2023-11-23T05:08:06.970Z,9.15
2023-11-23T05:10:34.644Z,8.55
2023-11-23T05:13:02.231Z,7.90
2023-11-23T05:15:31.156Z,7.88
2023-11-23T05:17:59.283Z,8.35
2023-11-23T05:20:26.872Z,8.20
2023-11-23T05:22:54.525Z,7.93
2023-11-23T05:25:22.281Z,7.50
2023-11-23T05:27:49.908Z,7.93
2023-11-23T05:30:17.593Z,8.63
2023-11-23T05:32:47.244Z,8.27
2023-11-23T05:35:14.949Z,9.35
2023-11-23T05:37:42.476Z,7.93
2023-11-23T05:40:13.895Z,7.68
2023-11-23T05:42:47.676Z,8.45
2023-11-23T05:45:21.525Z,8.75
2023-11-23T05:47:50.552Z,8.05
2023-11-23T05:50:18.150Z,8.93
2023-11-23T05:52:46.740Z,9.27
2023-11-23T05:55:16.364Z,9.20
2023-11-23T05:57:43.948Z,9.68
2023-11-23T06:00:12.697Z,8.65
2023-11-23T06:02:42.582Z,8.20
2023-11-23T06:05:12.046Z,8.80
2023-11-23T06:07:39.677Z,7.85
2023-11-23T06:10:08.894Z,8.98
2023-11-23T06:12:36.579Z,8.88
2023-11-23T06:15:05.007Z,9.32
2023-11-23T06:17:32.756Z,9.30
2023-11-23T06:20:00.476Z,9.85
2023-11-23T06:22:29.392Z,10.65
2023-11-23T06:24:57.078Z,8.38
2023-11-23T06:27:24.818Z,8.93
2023-11-23T06:29:53.629Z,9.00
2023-11-23T06:32:21.221Z,8.65
2023-11-23T06:34:48.895Z,10.90
2023-11-23T06:37:16.724Z,9.00
2023-11-23T06:39:45.648Z,8.35
2023-11-23T06:42:13.220Z,8.40
2023-11-23T06:44:40.773Z,8.38
2023-11-23T06:47:08.351Z,9.52
2023-11-23T06:49:36.268Z,9.10
2023-11-23T06:52:04.695Z,10.32
2023-11-23T06:54:33.392Z,9.50
2023-11-23T06:57:02.584Z,8.45
2023-11-23T06:59:30.994Z,10.55
2023-11-23T07:01:58.713Z,8.85
2023-11-23T07:04:26.426Z,9.60
2023-11-23T07:06:54.184Z,9.38
2023-11-23T07:09:22.431Z,8.80
2023-11-23T07:11:50.697Z,8.23
2023-11-23T07:14:19.741Z,9.23
2023-11-23T07:16:47.727Z,8.48
2023-11-23T07:19:15.343Z,8.48
2023-11-23T07:21:42.933Z,8.27
2023-11-23T07:24:11.233Z,8.00
2023-11-23T07:26:38.832Z,8.02
2023-11-23T07:29:06.763Z,8.98
2023-11-23T07:31:35.785Z,8.32
2023-11-23T07:34:04.101Z,7.53
2023-11-23T07:36:31.767Z,8.25
2023-11-23T07:38:59.644Z,8.25
2023-11-23T07:41:27.278Z,8.40
2023-11-23T07:43:58.857Z,8.27
2023-11-23T07:46:27.141Z,8.40
2023-11-23T07:48:56.173Z,7.72
2023-11-23T07:51:23.776Z,9.95
2023-11-23T07:53:51.416Z,6.90
2023-11-23T07:56:19.540Z,9.15
2023-11-23T07:58:47.796Z,8.23
2023-11-23T08:01:15.331Z,9.45
2023-11-23T08:03:43.116Z,8.15
2023-11-23T08:06:12.201Z,8.10
2023-11-23T08:08:39.756Z,8.25
2023-11-23T08:11:08.037Z,10.15
2023-11-23T08:13:36.103Z,8.18
2023-11-23T08:16:05.403Z,8.07
2023-11-23T08:18:40.265Z,7.80
2023-11-23T08:21:15.783Z,8.15
2023-11-23T08:23:43.541Z,8.40
2023-11-23T08:26:12.067Z,6.70
2023-11-23T08:28:39.714Z,7.72
2023-11-23T08:31:08.774Z,9.65
2023-11-23T08:33:36.384Z,8.15
2023-11-23T08:36:04.025Z,8.38
2023-11-23T08:38:33.010Z,8.18
2023-11-23T08:41:01.734Z,9.95
2023-11-23T08:43:29.531Z,8.07
2023-11-23T08:45:57.089Z,8.00
2023-11-23T08:48:24.765Z,7.95
2023-11-23T08:50:52.435Z,8.18
2023-11-23T08:53:20.044Z,8.93
2023-11-23T08:55:51.255Z,7.55
2023-11-23T08:58:19.613Z,8.82
2023-11-23T09:00:47.510Z,8.27
2023-11-23T09:03:15.186Z,8.50
2023-11-23T09:05:43.025Z,9.43
2023-11-23T09:08:10.762Z,7.78
2023-11-23T09:10:38.375Z,7.40
2023-11-23T09:13:07.271Z,7.05
2023-11-23T09:15:34.891Z,8.00
2023-11-23T09:18:02.725Z,6.95
2023-11-23T09:20:30.363Z,7.95
2023-11-23T09:22:58.078Z,7.63
2023-11-23T09:25:26.148Z,7.13
2023-11-23T09:27:54.968Z,6.18
2023-11-23T09:30:23.938Z,8.23
2023-11-23T09:32:51.750Z,7.00
2023-11-23T09:35:20.215Z,7.95
2023-11-23T09:37:48.502Z,8.10
2023-11-23T09:40:18.867Z,8.40
2023-11-23T09:42:49.551Z,6.72
2023-11-23T09:45:23.098Z,6.85
2023-11-23T09:47:54.808Z,6.60
2023-11-23T09:50:22.603Z,7.10
2023-11-23T09:52:50.628Z,6.40
2023-11-23T09:55:18.673Z,6.32
2023-11-23T09:57:46.905Z,6.47
2023-11-23T10:00:16.158Z,6.22
2023-11-23T10:02:45.202Z,7.70
2023-11-23T10:05:16.565Z,5.60
2023-11-23T10:07:45.045Z,5.28
2023-11-23T10:10:13.550Z,6.07
2023-11-23T10:12:41.495Z,5.85
2023-11-23T10:15:11.637Z,5.30
2023-11-23T10:17:41.011Z,5.88
2023-11-23T10:20:11.393Z,5.53
2023-11-23T10:22:43.956Z,4.90
2023-11-23T10:25:12.059Z,5.82
2023-11-23T10:27:39.684Z,6.50
2023-11-23T10:30:08.735Z,5.57
2023-11-23T10:32:38.037Z,6.50
2023-11-23T10:35:10.720Z,7.32
2023-11-23T10:37:41.069Z,5.40
2023-11-23T10:42:39.582Z,5.43
2023-11-23T10:45:08.816Z,5.88
2023-11-23T10:47:36.999Z,5.28
2023-11-23T10:50:06.554Z,6.22
2023-11-23T10:52:37.281Z,5.32
2023-11-23T10:55:07.334Z,5.03
2023-11-23T11:00:04.917Z,5.10
2023-11-23T11:02:32.740Z,4.90
2023-11-23T11:05:00.654Z,5.68
2023-11-23T11:07:28.958Z,5.93
2023-11-23T11:10:00.486Z,5.72
2023-11-23T11:12:39.028Z,5.10
2023-11-23T11:15:08.512Z,5.45
2023-11-23T11:17:37.467Z,5.38
2023-11-23T11:20:09.802Z,5.20
2023-11-23T11:22:37.467Z,5.78
2023-11-23T11:25:05.756Z,6.72
2023-11-23T11:27:36.117Z,6.80
2023-11-23T11:30:06.870Z,6.45
2023-11-23T11:32:35.041Z,5.65
2023-11-23T11:35:04.116Z,5.82
2023-11-23T11:37:32.491Z,6.22
2023-11-23T11:40:00.889Z,5.03
2023-11-23T11:42:31.466Z,5.55
2023-11-23T11:44:59.489Z,5.28
2023-11-23T11:47:30.734Z,5.68
2023-11-23T11:49:58.916Z,5.88
2023-11-23T11:52:27.433Z,6.28
2023-11-23T11:54:55.237Z,5.25
2023-11-23T11:57:23.190Z,6.32
2023-11-23T11:59:52.304Z,5.85
2023-11-23T12:02:20.385Z,5.15
2023-11-23T12:04:58.781Z,5.32
2023-11-23T12:07:26.659Z,5.50
2023-11-23T12:09:55.578Z,5.72
2023-11-23T12:12:23.382Z,5.63
2023-11-23T12:14:51.269Z,6.13
2023-11-23T12:17:19.047Z,6.13
2023-11-23T12:19:55.362Z,5.10
2023-11-23T12:22:24.071Z,5.63
2023-11-23T12:24:52.303Z,6.30
2023-11-23T12:27:21.749Z,6.07
2023-11-23T12:29:49.724Z,5.40
2023-11-23T12:32:17.969Z,4.75
2023-11-23T12:34:45.733Z,5.68
2023-11-23T12:37:15.605Z,4.85
2023-11-23T12:39:43.257Z,4.57
2023-11-23T12:42:10.975Z,5.10
2023-11-23T12:44:38.602Z,4.40
2023-11-23T12:47:08.180Z,4.47
2023-11-23T12:49:35.921Z,5.75
2023-11-23T12:52:03.498Z,4.85
2023-11-23T12:54:33.964Z,5.20
2023-11-23T12:57:01.665Z,4.45
2023-11-23T12:59:29.236Z,4.97
2023-11-23T13:02:00.004Z,4.18
2023-11-23T13:04:30.463Z,4.50
2023-11-23T13:06:59.200Z,4.95
2023-11-23T13:09:28.785Z,5.50
2023-11-23T13:11:59.839Z,4.07
2023-11-23T13:14:27.800Z,4.38
2023-11-23T13:16:55.381Z,4.53
2023-11-23T13:19:30.570Z,4.30
2023-11-23T13:22:05.348Z,4.30
2023-11-23T13:24:33.787Z,3.35
2023-11-23T13:27:02.900Z,3.97
2023-11-23T13:29:30.956Z,3.90
2023-11-23T13:31:59.557Z,4.75
2023-11-23T13:34:27.550Z,4.75
2023-11-23T13:36:55.642Z,3.67
2023-11-23T13:39:23.644Z,4.18
2023-11-23T13:41:51.384Z,3.85
2023-11-23T13:44:21.144Z,5.22
2023-11-23T13:46:49.051Z,4.18
2023-11-23T13:49:17.887Z,3.88
2023-11-23T13:51:46.014Z,3.83
2023-11-23T13:54:14.799Z,3.90
2023-11-23T13:56:43.896Z,4.00
2023-11-23T13:59:12.705Z,3.65
2023-11-23T14:01:41.947Z,4.30
2023-11-23T14:04:13.826Z,3.85
2023-11-23T14:06:42.767Z,3.80
2023-11-23T14:09:18.950Z,4.13
2023-11-23T14:14:14.580Z,3.38
2023-11-23T14:16:43.725Z,5.65
2023-11-23T14:19:16.834Z,4.07
2023-11-23T14:21:45.288Z,3.67
2023-11-23T14:24:13.024Z,3.60
2023-11-23T14:26:41.076Z,3.33
2023-11-23T14:29:10.762Z,5.72
2023-11-23T14:31:38.906Z,4.90
2023-11-23T14:34:08.065Z,3.80
2023-11-23T14:36:35.699Z,4.13
2023-11-23T14:39:05.547Z,3.60
2023-11-23T14:41:33.162Z,3.75
2023-11-23T14:44:00.785Z,3.20
2023-11-23T14:46:28.653Z,3.38
2023-11-23T14:48:56.256Z,3.35
2023-11-23T14:51:29.853Z,3.60
2023-11-23T14:54:04.161Z,4.45
2023-11-23T14:56:37.744Z,2.83
2023-11-23T14:59:06.634Z,3.15
2023-11-23T15:01:36.327Z,2.97
2023-11-23T15:04:04.505Z,3.40
2023-11-23T15:06:34.193Z,3.40
2023-11-23T15:09:01.879Z,2.92
2023-11-23T15:11:29.925Z,3.03
2023-11-23T15:13:58.744Z,2.80
2023-11-23T15:16:27.500Z,3.05
2023-11-23T15:18:55.596Z,2.85
2023-11-23T15:21:23.262Z,2.33
2023-11-23T15:23:52.202Z,2.50
2023-11-23T15:26:20.010Z,2.17
2023-11-23T15:28:47.657Z,2.35
2023-11-23T15:31:16.822Z,3.00
2023-11-23T15:33:44.552Z,3.05
2023-11-23T15:36:13.010Z,4.50
2023-11-23T15:38:40.649Z,3.42
2023-11-23T15:41:09.981Z,2.92
2023-11-23T15:43:37.847Z,3.25
2023-11-23T15:46:06.856Z,3.40
2023-11-23T15:48:35.227Z,3.42
2023-11-23T15:51:02.874Z,3.10
2023-11-23T15:53:30.515Z,3.53
2023-11-23T15:55:58.105Z,2.83
2023-11-23T15:58:27.969Z,2.70
2023-11-23T16:00:55.507Z,3.20
2023-11-23T16:03:23.144Z,3.67
2023-11-23T16:05:51.011Z,2.95
2023-11-23T16:08:18.633Z,3.55
2023-11-23T16:10:46.199Z,3.63
2023-11-23T16:13:19.402Z,3.78
2023-11-23T16:15:49.098Z,3.22
2023-11-23T16:18:16.969Z,5.15
2023-11-23T16:20:46.950Z,3.17
2023-11-23T16:23:14.607Z,2.30
2023-11-23T16:25:42.240Z,3.10
2023-11-23T16:28:09.872Z,3.30
2023-11-23T16:30:38.016Z,2.50
2023-11-23T16:33:06.997Z,2.53
2023-11-23T16:35:34.668Z,2.42
2023-11-23T16:38:04.669Z,2.05
2023-11-23T16:43:00.434Z,2.47
2023-11-23T16:45:28.017Z,2.55
2023-11-23T16:47:55.692Z,2.00
2023-11-23T16:50:24.973Z,1.98
2023-11-23T16:52:52.552Z,1.70
2023-11-23T16:55:20.087Z,2.15
2023-11-23T16:57:48.393Z,2.15
2023-11-23T17:00:17.085Z,2.20
2023-11-23T17:02:44.876Z,2.05
2023-11-23T17:05:14.966Z,1.83
2023-11-23T17:07:43.902Z,2.30
2023-11-23T17:10:12.680Z,2.47
2023-11-23T17:12:40.348Z,3.08
2023-11-23T17:15:09.090Z,2.58
2023-11-23T17:17:36.749Z,2.38
2023-11-23T17:20:04.820Z,2.55
2023-11-23T17:22:35.541Z,2.75
2023-11-23T17:25:06.800Z,3.05
2023-11-23T17:27:34.518Z,2.58
2023-11-23T17:30:02.147Z,2.00
2023-11-23T17:32:29.766Z,2.15
2023-11-23T17:34:57.538Z,1.85
2023-11-23T17:37:25.158Z,2.30
2023-11-23T17:39:52.822Z,2.10
2023-11-23T17:42:21.848Z,2.03
2023-11-23T17:44:49.980Z,1.98
2023-11-23T17:47:17.574Z,2.17
2023-11-23T17:49:46.091Z,2.03
2023-11-23T17:52:14.621Z,1.75
2023-11-23T17:54:42.462Z,2.25
2023-11-23T17:57:10.208Z,2.15
2023-11-23T17:59:47.346Z,2.70
2023-11-23T18:02:19.466Z,2.40
2023-11-23T18:04:52.628Z,2.65
2023-11-23T18:07:20.374Z,2.50
2023-11-23T18:09:48.240Z,2.28
2023-11-23T18:12:15.891Z,1.80
2023-11-23T18:14:44.958Z,2.17
2023-11-23T18:17:12.750Z,2.53
2023-11-23T18:19:40.433Z,2.15
2023-11-23T18:22:08.980Z,2.17
2023-11-23T18:24:36.980Z,8.02
2023-11-23T18:27:07.680Z,2.40
2023-11-23T18:29:37.207Z,1.83
2023-11-23T18:32:08.247Z,1.70
2023-11-23T18:34:35.908Z,1.67
2023-11-23T18:37:03.676Z,2.30
2023-11-23T18:39:31.294Z,17.08
2023-11-23T18:41:59.241Z,2.10
2023-11-23T18:44:26.979Z,1.83
2023-11-23T18:46:55.634Z,1.70
2023-11-23T18:49:29.022Z,1.95
2023-11-23T18:51:56.623Z,1.90
2023-11-23T18:54:24.242Z,1.85
2023-11-23T18:56:51.897Z,2.05
2023-11-23T18:59:19.571Z,1.83
2023-11-23T19:01:47.365Z,2.38
2023-11-23T19:04:15.162Z,2.40
2023-11-23T19:06:44.228Z,1.88
2023-11-23T19:09:15.439Z,1.80
2023-11-23T19:11:43.116Z,2.10
2023-11-23T19:14:10.940Z,2.05
2023-11-23T19:16:38.823Z,1.67
2023-11-23T19:19:08.603Z,2.00
2023-11-23T19:21:36.910Z,1.90
2023-11-23T19:24:07.226Z,2.63
2023-11-23T19:26:35.747Z,3.53
2023-11-23T19:29:04.223Z,2.38
2023-11-23T19:31:33.025Z,2.50
2023-11-23T19:34:01.867Z,1.85
2023-11-23T19:36:30.133Z,2.50
2023-11-23T19:38:58.152Z,2.38
2023-11-23T19:41:28.195Z,2.70
2023-11-23T19:46:24.080Z,2.20
2023-11-23T19:48:52.310Z,1.70
2023-11-23T19:51:25.108Z,1.83
2023-11-23T19:53:56.174Z,1.92
2023-11-23T19:56:25.984Z,1.40
2023-11-23T19:58:55.229Z,1.65
2023-11-23T20:01:22.856Z,2.10
2023-11-23T20:03:50.524Z,1.63
2023-11-23T20:06:18.322Z,2.20
2023-11-23T20:08:46.009Z,1.48
2023-11-23T20:11:14.791Z,1.60
2023-11-23T20:13:42.681Z,1.77
2023-11-23T20:16:23.867Z,1.27
2023-11-23T20:18:57.538Z,1.25
2023-11-23T20:21:25.229Z,1.55
2023-11-23T20:23:52.939Z,1.73
2023-11-23T20:26:20.609Z,1.52
2023-11-23T20:28:48.268Z,1.48
2023-11-23T20:31:17.728Z,1.30
2023-11-23T20:33:45.408Z,0.90
2023-11-23T20:36:13.306Z,1.40
2023-11-23T20:38:41.021Z,1.17
2023-11-23T20:41:08.594Z,1.02
2023-11-23T20:43:38.359Z,1.52
2023-11-23T20:46:08.344Z,1.30
2023-11-23T20:48:37.857Z,1.45
2023-11-23T20:51:06.400Z,1.63
2023-11-23T20:53:34.070Z,0.93
2023-11-23T20:56:02.587Z,1.52
2023-11-23T20:58:30.575Z,1.55
2023-11-23T21:01:00.058Z,1.60
2023-11-23T21:03:29.662Z,1.65
2023-11-23T21:06:00.244Z,1.30
2023-11-23T21:08:28.394Z,1.45
2023-11-23T21:10:56.095Z,1.20
2023-11-23T21:13:23.644Z,1.63
2023-11-23T21:15:55.177Z,1.60
2023-11-23T21:20:50.771Z,2.03
2023-11-23T21:23:19.825Z,1.67
2023-11-23T21:25:47.381Z,1.83
2023-11-23T21:28:15.339Z,1.80
2023-11-23T21:30:42.989Z,2.15
2023-11-23T21:33:11.283Z,1.60
2023-11-23T21:35:39.281Z,2.10
2023-11-23T21:38:06.937Z,1.90
2023-11-23T21:40:37.517Z,1.90
2023-11-23T21:43:05.228Z,1.92
2023-11-23T21:45:32.825Z,2.05
2023-11-23T21:48:01.831Z,1.55
2023-11-23T21:50:29.485Z,3.58
2023-11-23T21:52:57.149Z,1.85
2023-11-23T21:55:24.830Z,2.00
2023-11-23T21:57:53.986Z,1.45
2023-11-23T22:00:22.257Z,1.70
2023-11-23T22:02:50.023Z,1.40
2023-11-23T22:05:17.648Z,1.75
2023-11-23T22:07:45.280Z,1.50
2023-11-23T22:10:12.845Z,1.42
2023-11-23T22:12:40.792Z,1.65
2023-11-23T22:15:11.964Z,1.85
2023-11-23T22:17:39.897Z,1.77
2023-11-23T22:20:09.736Z,1.52
2023-11-23T22:22:37.975Z,1.77
2023-11-23T22:25:08.011Z,1.60
2023-11-23T22:27:36.309Z,1.50
2023-11-23T22:30:05.225Z,1.30
2023-11-23T22:32:34.612Z,1.55
2023-11-23T22:35:02.799Z,1.58
2023-11-23T22:37:31.390Z,1.92
2023-11-23T22:39:59.461Z,1.52
2023-11-23T22:42:27.779Z,1.30
2023-11-23T22:44:55.925Z,1.63
2023-11-23T22:47:23.527Z,1.08
2023-11-23T22:49:52.582Z,1.20
2023-11-23T22:52:20.246Z,2.13
2023-11-23T22:54:48.565Z,1.23
2023-11-23T22:57:16.232Z,1.20
2023-11-23T22:59:43.930Z,1.20
2023-11-23T23:02:11.720Z,1.45
2023-11-23T23:04:40.022Z,1.25
2023-11-23T23:07:10.033Z,1.30
2023-11-23T23:12:05.572Z,1.35
2023-11-23T23:14:33.466Z,1.50
2023-11-23T23:17:01.277Z,1.55
2023-11-23T23:19:28.916Z,1.63
2023-11-23T23:21:56.900Z,1.60
2023-11-23T23:24:25.886Z,1.75
2023-11-23T23:26:53.441Z,1.45
2023-11-23T23:29:21.658Z,1.45
2023-11-23T23:31:49.194Z,1.40
2023-11-23T23:34:16.891Z,1.38
2023-11-23T23:36:44.510Z,1.48
2023-11-23T23:39:12.105Z,1.42
2023-11-23T23:41:41.021Z,1.50
2023-11-23T23:44:08.608Z,1.48
2023-11-23T23:46:36.423Z,1.52
2023-11-23T23:49:04.018Z,1.33
2023-11-23T23:51:32.922Z,1.38
2023-11-23T23:54:00.554Z,1.20
2023-11-23T23:56:28.423Z,1.25
2023-11-23T23:58:57.328Z,1.35
